createdAt,value
2017-03-04T00:00:16.686Z,0
2017-03-04T00:01:31.140Z,0
2017-03-04T00:02:45.560Z,0
2017-03-04T00:03:59.962Z,0
2017-03-04T00:05:14.384Z,0
2017-03-04T00:06:28.820Z,0
2017-03-04T00:07:43.275Z,0
2017-03-04T00:08:57.754Z,0
2017-03-04T00:10:12.178Z,0
2017-03-04T00:11:26.583Z,0
2017-03-04T00:12:40.964Z,0
2017-03-04T00:13:55.385Z,0
2017-03-04T00:15:09.142Z,0
2017-03-04T00:16:23.546Z,0
2017-03-04T00:17:37.453Z,0
2017-03-04T00:18:51.942Z,0
2017-03-04T00:20:05.735Z,0
2017-03-04T00:21:20.129Z,0
2017-03-04T00:22:34.573Z,0
2017-03-04T00:23:49.010Z,0
2017-03-04T00:25:53.557Z,0
2017-03-04T00:27:33.620Z,0
2017-03-04T00:28:48.004Z,0
2017-03-04T00:30:01.753Z,0
2017-03-04T00:31:16.159Z,0
2017-03-04T00:32:30.603Z,0
2017-03-04T00:33:45.021Z,0
2017-03-04T00:34:59.422Z,0
2017-03-04T00:36:13.197Z,0
2017-03-04T00:37:27.591Z,0
2017-03-04T00:38:41.973Z,0
2017-03-04T00:39:56.408Z,0
2017-03-04T00:41:10.816Z,0
2017-03-04T00:42:25.187Z,0
2017-03-04T00:43:39.592Z,0
2017-03-04T00:44:54.008Z,0
2017-03-04T00:46:08.379Z,0
2017-03-04T00:47:22.811Z,0
2017-03-04T00:48:37.231Z,0
2017-03-04T00:49:51.676Z,0
2017-03-04T00:51:06.078Z,0
2017-03-04T00:52:20.477Z,0
2017-03-04T00:53:34.203Z,0
2017-03-04T00:54:48.630Z,0
2017-03-04T00:56:03.050Z,0
2017-03-04T00:57:16.847Z,0
2017-03-04T00:58:30.638Z,0
2017-03-04T00:59:45.046Z,0
2017-03-04T01:00:59.442Z,0
2017-03-04T01:02:11.917Z,0
2017-03-04T01:03:26.339Z,0
2017-03-04T01:04:40.720Z,0
2017-03-04T01:05:55.150Z,0
2017-03-04T01:07:09.602Z,0
2017-03-04T01:08:24.009Z,0
2017-03-04T01:09:38.423Z,0
2017-03-04T01:10:52.865Z,0
2017-03-04T01:12:07.273Z,0
2017-03-04T01:13:21.693Z,0
2017-03-04T01:14:36.071Z,0
2017-03-04T01:15:50.464Z,0
2017-03-04T01:17:04.879Z,0
2017-03-04T01:18:19.308Z,0
2017-03-04T01:19:33.693Z,0
2017-03-04T01:20:47.457Z,0
2017-03-04T01:22:01.883Z,0
2017-03-04T01:23:15.713Z,0
2017-03-04T01:24:30.165Z,0
2017-03-04T01:25:44.563Z,0
2017-03-04T01:26:58.967Z,0
2017-03-04T01:28:13.367Z,0
2017-03-04T01:29:27.781Z,0
2017-03-04T01:30:42.167Z,0
2017-03-04T01:31:56.559Z,0
2017-03-04T01:33:10.943Z,0
2017-03-04T01:34:25.361Z,0
2017-03-04T01:35:39.793Z,0
2017-03-04T01:36:54.219Z,0
2017-03-04T01:38:08.617Z,0
2017-03-04T01:39:23.026Z,0
2017-03-04T01:40:36.808Z,0
2017-03-04T01:41:51.221Z,0
2017-03-04T01:43:05.664Z,0
2017-03-04T01:44:20.045Z,0
2017-03-04T01:45:33.823Z,0
2017-03-04T01:46:48.259Z,0
2017-03-04T01:48:02.689Z,0
2017-03-04T01:49:16.447Z,0
2017-03-04T01:50:30.859Z,0
2017-03-04T01:51:45.286Z,0
2017-03-04T01:52:59.711Z,0
2017-03-04T01:54:14.144Z,0
2017-03-04T01:55:28.550Z,0
2017-03-04T01:56:42.990Z,0
2017-03-04T01:57:57.454Z,0
2017-03-04T01:59:11.204Z,0
2017-03-04T02:00:25.612Z,0
2017-03-04T02:01:40.011Z,0
2017-03-04T02:02:54.427Z,0
2017-03-04T02:04:08.843Z,0
2017-03-04T02:05:23.291Z,0
2017-03-04T02:06:37.710Z,0
2017-03-04T02:07:52.130Z,0
2017-03-04T02:09:06.528Z,0
2017-03-04T02:10:20.947Z,0
2017-03-04T02:11:35.325Z,0
2017-03-04T02:12:49.745Z,0
2017-03-04T02:14:04.194Z,0
2017-03-04T02:15:18.670Z,0
2017-03-04T02:16:45.777Z,0
2017-03-04T02:18:00.178Z,0
2017-03-04T02:19:13.948Z,0
2017-03-04T02:20:28.333Z,0
2017-03-04T02:21:42.722Z,0
2017-03-04T02:22:57.142Z,0
2017-03-04T02:24:11.555Z,0
2017-03-04T02:25:25.997Z,0
2017-03-04T02:26:40.410Z,0
2017-03-04T02:27:54.803Z,0
2017-03-04T02:29:09.264Z,0
2017-03-04T02:30:23.654Z,0
2017-03-04T02:31:38.010Z,0
2017-03-04T02:32:52.799Z,0
2017-03-04T02:34:07.276Z,0
2017-03-04T02:35:21.648Z,0
2017-03-04T02:36:36.063Z,0
2017-03-04T02:37:50.460Z,0
2017-03-04T02:39:04.855Z,0
2017-03-04T02:40:19.273Z,0
2017-03-04T02:41:33.688Z,0
2017-03-04T02:42:48.080Z,0
2017-03-04T02:44:02.456Z,0
2017-03-04T02:45:16.846Z,0
2017-03-04T02:46:31.339Z,0
2017-03-04T02:47:45.729Z,0
2017-03-04T02:49:00.104Z,0
2017-03-04T02:50:14.497Z,0
2017-03-04T02:51:28.893Z,0
2017-03-04T02:52:43.296Z,0
2017-03-04T02:53:57.682Z,0
2017-03-04T02:55:12.105Z,0
2017-03-04T02:56:25.900Z,0
2017-03-04T02:57:40.323Z,0
2017-03-04T02:59:56.608Z,0
2017-03-04T03:01:10.319Z,0
2017-03-04T03:02:24.088Z,0
2017-03-04T03:03:38.457Z,0
2017-03-04T03:04:52.853Z,0
2017-03-04T03:06:07.325Z,0
2017-03-04T03:07:21.077Z,0
2017-03-04T03:08:35.485Z,0
2017-03-04T03:09:49.897Z,0
2017-03-04T03:11:04.303Z,0
2017-03-04T03:12:18.032Z,0
2017-03-04T03:13:32.429Z,0
2017-03-04T03:14:46.812Z,0
2017-03-04T03:16:01.244Z,0
2017-03-04T03:17:15.723Z,0
2017-03-04T03:18:30.106Z,0
2017-03-04T03:19:44.536Z,0
2017-03-04T03:20:58.919Z,0
2017-03-04T03:22:13.315Z,0
2017-03-04T03:23:27.747Z,0
2017-03-04T03:24:42.132Z,0
2017-03-04T03:25:57.546Z,0
2017-03-04T03:27:11.945Z,0
2017-03-04T03:28:26.392Z,0
2017-03-04T03:29:40.782Z,0
2017-03-04T03:30:55.195Z,0
2017-03-04T03:32:09.638Z,0
2017-03-04T03:33:24.042Z,0
2017-03-04T03:34:38.452Z,0
2017-03-04T03:35:52.870Z,0
2017-03-04T03:37:06.631Z,0
2017-03-04T03:38:21.093Z,0
2017-03-04T03:39:35.512Z,0
2017-03-04T03:40:49.912Z,0
2017-03-04T03:42:04.332Z,0
2017-03-04T03:43:18.071Z,0
2017-03-04T03:44:32.453Z,0
2017-03-04T03:45:46.885Z,0
2017-03-04T03:47:01.270Z,0
2017-03-04T03:48:15.081Z,0
2017-03-04T03:49:29.500Z,0
2017-03-04T03:50:43.949Z,0
2017-03-04T03:51:58.405Z,0
2017-03-04T03:53:12.848Z,0
2017-03-04T03:54:27.241Z,0
2017-03-04T03:55:41.664Z,0
2017-03-04T03:56:55.428Z,0
2017-03-04T03:58:09.863Z,0
2017-03-04T03:59:23.671Z,0
2017-03-04T04:00:38.100Z,0
2017-03-04T04:01:52.517Z,0
2017-03-04T04:03:06.932Z,0
2017-03-04T04:04:21.377Z,0
2017-03-04T04:05:35.769Z,0
2017-03-04T04:06:50.166Z,0
2017-03-04T04:08:04.573Z,0
2017-03-04T04:09:18.971Z,0
2017-03-04T04:10:33.386Z,0
2017-03-04T04:11:47.792Z,0
2017-03-04T04:13:01.613Z,0
2017-03-04T04:14:15.988Z,0
2017-03-04T04:15:30.389Z,0
2017-03-04T04:16:44.859Z,0
2017-03-04T04:17:59.237Z,0
2017-03-04T04:19:13.696Z,0
2017-03-04T04:20:28.130Z,0
2017-03-04T04:21:42.515Z,0
2017-03-04T04:22:56.932Z,0
2017-03-04T04:24:11.347Z,0
2017-03-04T04:25:25.749Z,0
2017-03-04T04:26:40.126Z,0
2017-03-04T04:27:54.539Z,0
2017-03-04T04:29:08.942Z,0
2017-03-04T04:30:23.423Z,0
2017-03-04T04:31:37.904Z,0
2017-03-04T04:32:52.333Z,0
2017-03-04T04:34:06.098Z,0
2017-03-04T04:35:20.526Z,0
2017-03-04T04:36:34.924Z,0
2017-03-04T04:37:49.370Z,0
2017-03-04T04:39:03.785Z,0
2017-03-04T04:40:18.166Z,0
2017-03-04T04:41:32.574Z,0
2017-03-04T04:42:46.333Z,0
2017-03-04T04:44:00.765Z,0
2017-03-04T04:45:15.132Z,0
2017-03-04T04:46:28.863Z,0
2017-03-04T04:47:42.679Z,0
2017-03-04T04:48:57.113Z,0
2017-03-04T04:50:11.512Z,0
2017-03-04T04:51:25.976Z,0
2017-03-04T04:52:40.427Z,0
2017-03-04T04:53:54.834Z,0
2017-03-04T04:55:09.228Z,0
2017-03-04T04:56:22.957Z,0
2017-03-04T04:57:36.751Z,0
2017-03-04T04:58:51.161Z,0
2017-03-04T05:00:05.602Z,0
2017-03-04T05:01:19.991Z,0
2017-03-04T05:02:34.430Z,0
2017-03-04T05:03:48.817Z,0
2017-03-04T05:05:02.644Z,0
2017-03-04T05:06:17.093Z,0
2017-03-04T05:07:31.472Z,0
2017-03-04T05:08:45.892Z,0
2017-03-04T05:10:00.291Z,0
2017-03-04T05:11:13.463Z,0
2017-03-04T05:12:27.852Z,0
2017-03-04T05:13:42.277Z,0
2017-03-04T05:14:56.663Z,0
2017-03-04T05:16:11.102Z,0
2017-03-04T05:17:25.501Z,0
2017-03-04T05:18:39.896Z,0
2017-03-04T05:19:54.267Z,0
2017-03-04T05:21:08.693Z,0
2017-03-04T05:22:23.103Z,0
2017-03-04T05:23:36.865Z,0
2017-03-04T05:24:51.260Z,0
2017-03-04T05:26:05.689Z,0
2017-03-04T05:27:20.090Z,0
2017-03-04T05:28:34.460Z,0
2017-03-04T05:29:48.856Z,0
2017-03-04T05:31:03.286Z,0
2017-03-04T05:32:17.019Z,0
2017-03-04T05:33:30.153Z,0
2017-03-04T05:34:44.569Z,0
2017-03-04T05:35:58.962Z,0
2017-03-04T05:37:13.376Z,0
2017-03-04T05:38:27.766Z,0
2017-03-04T05:39:42.182Z,0
2017-03-04T05:40:56.588Z,0
2017-03-04T05:42:11.040Z,0
2017-03-04T05:43:25.428Z,0
2017-03-04T05:44:39.842Z,0
2017-03-04T05:45:54.281Z,0
2017-03-04T05:47:08.672Z,0
2017-03-04T05:48:23.083Z,0
2017-03-04T05:49:36.873Z,0
2017-03-04T05:50:51.305Z,0
2017-03-04T05:52:05.692Z,0
2017-03-04T05:53:19.430Z,0
2017-03-04T05:54:33.201Z,0
2017-03-04T05:55:47.617Z,0
2017-03-04T05:57:02.012Z,0
2017-03-04T05:58:16.426Z,0
2017-03-04T05:59:30.788Z,0
2017-03-04T06:00:45.167Z,0
2017-03-04T06:01:59.593Z,0
2017-03-04T06:03:13.974Z,0
2017-03-04T06:04:28.399Z,0
2017-03-04T06:05:42.156Z,0
2017-03-04T06:06:56.584Z,0
2017-03-04T06:08:10.979Z,0
2017-03-04T06:09:25.366Z,0
2017-03-04T06:10:39.768Z,0
2017-03-04T06:11:54.165Z,0
2017-03-04T06:13:08.566Z,0
2017-03-04T06:14:23.045Z,0
2017-03-04T06:15:37.442Z,0
2017-03-04T06:16:51.811Z,0
2017-03-04T06:18:06.297Z,0
2017-03-04T06:19:20.054Z,0
2017-03-04T06:20:34.440Z,0
2017-03-04T06:21:48.824Z,0
2017-03-04T06:23:03.214Z,0
2017-03-04T06:24:16.984Z,0
2017-03-04T06:25:30.799Z,0
2017-03-04T06:26:45.211Z,0
2017-03-04T06:27:59.635Z,0
2017-03-04T06:29:14.086Z,0
2017-03-04T06:30:28.488Z,0
2017-03-04T06:31:42.866Z,0
2017-03-04T06:32:57.312Z,0
2017-03-04T06:34:11.703Z,0
2017-03-04T06:35:26.127Z,0
2017-03-04T06:36:40.529Z,0
2017-03-04T06:37:54.928Z,0
2017-03-04T06:39:09.313Z,0
2017-03-04T06:40:23.703Z,0
2017-03-04T06:41:38.089Z,0
2017-03-04T06:42:52.515Z,0
2017-03-04T06:44:06.907Z,0
2017-03-04T06:45:21.313Z,0
2017-03-04T06:46:35.731Z,0
2017-03-04T06:47:50.180Z,0
2017-03-04T06:49:04.579Z,0
2017-03-04T06:50:19.035Z,0
2017-03-04T06:51:33.435Z,0
2017-03-04T06:52:47.813Z,0
2017-03-04T06:54:02.195Z,0
2017-03-04T06:55:15.987Z,0
2017-03-04T06:56:30.394Z,0
2017-03-04T06:57:44.796Z,0
2017-03-04T06:58:59.209Z,0
2017-03-04T07:00:13.618Z,0
2017-03-04T07:01:28.019Z,0
2017-03-04T07:02:42.427Z,0
2017-03-04T07:03:56.197Z,0
2017-03-04T07:05:10.602Z,0
2017-03-04T07:06:24.408Z,0
2017-03-04T07:07:38.820Z,0
2017-03-04T07:08:53.227Z,0
2017-03-04T07:10:07.667Z,0
2017-03-04T07:11:22.132Z,0
2017-03-04T07:12:35.913Z,0
2017-03-04T07:13:50.323Z,0
2017-03-04T07:15:04.073Z,0
2017-03-04T07:16:17.836Z,0
2017-03-04T07:17:31.567Z,0
2017-03-04T07:18:45.986Z,0
2017-03-04T07:20:00.418Z,0
2017-03-04T07:21:14.821Z,0
2017-03-04T07:22:29.199Z,0
2017-03-04T07:23:43.654Z,0
2017-03-04T07:24:58.120Z,0
2017-03-04T07:26:11.937Z,0
2017-03-04T07:27:26.303Z,0
2017-03-04T07:28:40.762Z,0
2017-03-04T07:29:55.202Z,0
2017-03-04T07:31:08.975Z,0
2017-03-04T07:32:23.340Z,0
2017-03-04T07:33:37.733Z,0
2017-03-04T07:34:52.117Z,0
2017-03-04T07:36:06.527Z,0
2017-03-04T07:37:20.925Z,0
2017-03-04T07:38:35.315Z,0
2017-03-04T07:39:49.681Z,0
2017-03-04T07:41:03.460Z,0
2017-03-04T07:42:17.862Z,0
2017-03-04T07:43:32.259Z,0
2017-03-04T07:44:46.634Z,0
2017-03-04T07:46:01.050Z,0
2017-03-04T07:47:15.434Z,0
2017-03-04T07:48:29.224Z,0
2017-03-04T07:49:43.640Z,0
2017-03-04T07:50:57.428Z,0
2017-03-04T07:52:11.167Z,0
2017-03-04T07:53:25.558Z,0
2017-03-04T07:54:39.952Z,0
2017-03-04T07:55:53.741Z,0
2017-03-04T07:57:08.140Z,0
2017-03-04T07:58:22.529Z,0
2017-03-04T07:59:36.952Z,0
2017-03-04T08:00:51.344Z,0
2017-03-04T08:02:05.766Z,0
2017-03-04T08:03:20.192Z,0
2017-03-04T08:04:34.589Z,0
2017-03-04T08:05:48.999Z,0
2017-03-04T08:07:03.408Z,0
2017-03-04T08:08:17.841Z,0
2017-03-04T08:09:32.223Z,0
2017-03-04T08:10:46.660Z,0
2017-03-04T08:12:01.072Z,0
2017-03-04T08:13:15.485Z,0
2017-03-04T08:14:29.897Z,0
2017-03-04T08:15:43.634Z,0
2017-03-04T08:16:58.032Z,0
2017-03-04T08:18:12.419Z,0
2017-03-04T08:19:26.818Z,0
2017-03-04T08:20:41.258Z,0
2017-03-04T08:21:55.683Z,0
2017-03-04T08:23:10.095Z,0
2017-03-04T08:24:24.519Z,0
2017-03-04T08:25:38.912Z,0
2017-03-04T08:26:53.319Z,0
2017-03-04T08:28:07.743Z,0
2017-03-04T08:29:22.165Z,0
2017-03-04T08:30:36.566Z,0
2017-03-04T08:31:50.988Z,0
2017-03-04T08:33:05.410Z,0
2017-03-04T08:34:19.801Z,0
2017-03-04T08:35:34.214Z,0
2017-03-04T08:36:48.651Z,0
2017-03-04T08:38:03.048Z,0
2017-03-04T08:39:17.478Z,0
2017-03-04T08:40:31.880Z,0
2017-03-04T08:41:46.298Z,4
2017-03-04T08:43:00.687Z,0
2017-03-04T08:44:14.469Z,4
2017-03-04T08:45:28.874Z,4
2017-03-04T08:46:43.304Z,8
2017-03-04T08:47:57.704Z,8
2017-03-04T08:49:12.145Z,12
2017-03-04T08:50:25.916Z,20
2017-03-04T08:51:40.325Z,28
2017-03-04T08:52:54.708Z,44
2017-03-04T08:54:08.447Z,56
2017-03-04T08:55:22.885Z,76
2017-03-04T08:56:36.658Z,100
2017-03-04T08:57:51.088Z,128
2017-03-04T08:59:05.471Z,168
2017-03-04T09:00:19.902Z,228
2017-03-04T09:01:34.298Z,292
2017-03-04T09:02:48.698Z,356
2017-03-04T09:04:03.139Z,424
2017-03-04T09:05:17.583Z,484
2017-03-04T09:06:32.028Z,568
2017-03-04T09:07:46.399Z,652
2017-03-04T09:09:00.789Z,720
2017-03-04T09:10:14.532Z,796
2017-03-04T09:11:28.921Z,884
2017-03-04T09:12:43.299Z,968
2017-03-04T09:13:57.712Z,1072
2017-03-04T09:15:12.181Z,1104
2017-03-04T09:16:26.648Z,1228
2017-03-04T09:17:41.089Z,1340
2017-03-04T09:18:55.519Z,1480
2017-03-04T09:20:09.906Z,1564
2017-03-04T09:21:24.307Z,1600
2017-03-04T09:22:38.110Z,1720
2017-03-04T09:23:52.495Z,1808
2017-03-04T09:25:06.896Z,1928
2017-03-04T09:26:21.326Z,2184
2017-03-04T09:27:35.718Z,2500
2017-03-04T09:28:50.131Z,2760
2017-03-04T09:30:04.570Z,3024
2017-03-04T09:31:19.002Z,3328
2017-03-04T09:32:33.404Z,3756
2017-03-04T09:33:47.790Z,4240
2017-03-04T09:35:01.637Z,4716
2017-03-04T09:36:16.033Z,5316
2017-03-04T09:37:29.807Z,5844
2017-03-04T09:38:43.571Z,6332
2017-03-04T09:39:57.963Z,6792
2017-03-04T09:41:11.767Z,7280
2017-03-04T09:42:26.186Z,7680
2017-03-04T09:43:40.662Z,8060
2017-03-04T09:44:55.066Z,8428
2017-03-04T09:46:09.460Z,8708
2017-03-04T09:47:23.301Z,8708
2017-03-04T09:48:37.046Z,8884
2017-03-04T09:49:51.504Z,8716
2017-03-04T09:51:05.940Z,8408
2017-03-04T09:52:20.327Z,8264
2017-03-04T09:53:34.733Z,8312
2017-03-04T09:54:49.117Z,8608
2017-03-04T09:56:03.497Z,8876
2017-03-04T09:57:17.922Z,9376
2017-03-04T09:58:32.313Z,9696
2017-03-04T09:59:46.712Z,10104
2017-03-04T10:01:01.128Z,10284
2017-03-04T10:02:15.492Z,10316
2017-03-04T10:03:29.906Z,10388
2017-03-04T10:04:44.279Z,10536
2017-03-04T10:05:58.730Z,10584
2017-03-04T10:07:13.185Z,10484
2017-03-04T10:08:27.602Z,10360
2017-03-04T10:09:41.347Z,10368
2017-03-04T10:10:55.762Z,10572
2017-03-04T10:12:10.144Z,10828
2017-03-04T10:13:24.583Z,11144
2017-03-04T10:14:39.030Z,11560
2017-03-04T10:15:53.446Z,11984
2017-03-04T10:17:07.182Z,12396
2017-03-04T10:18:21.578Z,12708
2017-03-04T10:19:35.979Z,12884
2017-03-04T10:20:50.375Z,12980
2017-03-04T10:22:04.764Z,13004
2017-03-04T10:23:19.182Z,12996
2017-03-04T10:24:33.593Z,13156
2017-03-04T10:25:48.021Z,12928
2017-03-04T10:27:02.420Z,12180
2017-03-04T10:28:16.870Z,13172
2017-03-04T10:29:31.311Z,13328
2017-03-04T10:30:45.697Z,12864
2017-03-04T10:32:00.127Z,14616
2017-03-04T10:33:14.533Z,14452
2017-03-04T10:34:28.950Z,14636
2017-03-04T10:35:43.364Z,15404
2017-03-04T10:36:57.775Z,15444
2017-03-04T10:38:11.512Z,15648
2017-03-04T10:39:25.270Z,15860
2017-03-04T10:40:39.682Z,16100
2017-03-04T10:41:54.095Z,16152
2017-03-04T10:43:08.525Z,15648
2017-03-04T10:44:22.959Z,15812
2017-03-04T10:45:37.337Z,16612
2017-03-04T10:46:51.722Z,17664
2017-03-04T10:48:06.144Z,18304
2017-03-04T10:49:20.554Z,19776
2017-03-04T10:50:34.957Z,20416
2017-03-04T10:51:49.378Z,20928
2017-03-04T10:53:03.154Z,21408
2017-03-04T10:54:17.555Z,22272
2017-03-04T10:55:31.986Z,22432
2017-03-04T10:56:45.777Z,23648
2017-03-04T10:58:00.146Z,23744
2017-03-04T10:59:14.560Z,24096
2017-03-04T11:00:28.325Z,24128
2017-03-04T11:01:42.737Z,25600
2017-03-04T11:02:57.151Z,26144
2017-03-04T11:04:11.548Z,26080
2017-03-04T11:05:25.934Z,27968
2017-03-04T11:06:40.342Z,27072
2017-03-04T11:07:54.742Z,28384
2017-03-04T11:09:09.157Z,28416
2017-03-04T11:10:23.561Z,28192
2017-03-04T11:11:36.702Z,28576
2017-03-04T11:12:51.086Z,28608
2017-03-04T11:14:05.501Z,30496
2017-03-04T11:15:19.240Z,31904
2017-03-04T11:16:32.994Z,32736
2017-03-04T11:17:47.433Z,34080
2017-03-04T11:19:01.809Z,32800
2017-03-04T11:20:16.201Z,32096
2017-03-04T11:21:30.628Z,31360
2017-03-04T11:22:45.028Z,29376
2017-03-04T11:23:59.458Z,28416
2017-03-04T11:25:13.845Z,27776
2017-03-04T11:26:28.237Z,26528
2017-03-04T11:27:42.649Z,26240
2017-03-04T11:28:57.054Z,25632
2017-03-04T11:30:10.864Z,25760
2017-03-04T11:31:25.342Z,24640
2017-03-04T11:32:39.738Z,25696
2017-03-04T11:33:54.159Z,26304
2017-03-04T11:35:08.570Z,25728
2017-03-04T11:36:23.008Z,25120
2017-03-04T11:37:37.429Z,24416
2017-03-04T11:38:51.211Z,23424
2017-03-04T11:40:05.601Z,22944
2017-03-04T11:41:19.996Z,23232
2017-03-04T11:42:33.776Z,24064
2017-03-04T11:43:48.166Z,24992
2017-03-04T11:45:02.566Z,24768
2017-03-04T11:46:16.988Z,26016
2017-03-04T11:47:31.389Z,27680
2017-03-04T11:48:45.196Z,28736
2017-03-04T11:49:59.611Z,29216
2017-03-04T11:51:13.372Z,29696
2017-03-04T11:52:27.759Z,30144
2017-03-04T11:53:40.883Z,31008
2017-03-04T11:54:55.289Z,32000
2017-03-04T11:56:09.080Z,32480
2017-03-04T11:57:22.857Z,32320
2017-03-04T11:58:37.233Z,30784
2017-03-04T11:59:51.629Z,28704
2017-03-04T12:01:06.029Z,26688
2017-03-04T12:02:20.422Z,25408
2017-03-04T12:03:34.818Z,25248
2017-03-04T12:04:49.234Z,25376
2017-03-04T12:06:03.631Z,25280
2017-03-04T12:07:17.390Z,25120
2017-03-04T12:08:31.773Z,24480
2017-03-04T12:09:46.204Z,23744
2017-03-04T12:11:00.611Z,23136
2017-03-04T12:12:15.043Z,23232
2017-03-04T12:13:28.793Z,23712
2017-03-04T12:14:43.149Z,24608
2017-03-04T12:15:57.625Z,25920
2017-03-04T12:17:12.100Z,27328
2017-03-04T12:18:26.510Z,28480
2017-03-04T12:19:40.313Z,29504
2017-03-04T12:20:54.721Z,29984
2017-03-04T12:22:09.128Z,30240
2017-03-04T12:23:23.532Z,30912
2017-03-04T12:24:37.309Z,31680
2017-03-04T12:25:51.717Z,32224
2017-03-04T12:27:06.461Z,31744
2017-03-04T12:28:20.836Z,31392
2017-03-04T12:29:35.232Z,31712
2017-03-04T12:30:49.038Z,33088
2017-03-04T12:32:03.430Z,35136
2017-03-04T12:33:17.859Z,37984
2017-03-04T12:34:32.257Z,39424
2017-03-04T12:35:46.671Z,39712
2017-03-04T12:37:01.121Z,39904
2017-03-04T12:38:15.508Z,39872
2017-03-04T12:39:29.673Z,40384
2017-03-04T12:40:43.371Z,41824
2017-03-04T12:41:57.114Z,44544
2017-03-04T12:43:10.853Z,46624
2017-03-04T12:44:24.603Z,49536
2017-03-04T12:45:38.312Z,54240
2017-03-04T12:46:52.025Z,51520
2017-03-04T12:48:05.749Z,46208
2017-03-04T12:49:19.494Z,43968
2017-03-04T12:50:32.640Z,51072
2017-03-04T12:51:46.378Z,85600
2017-03-04T12:53:00.110Z,86016
2017-03-04T12:54:13.202Z,88672
2017-03-04T12:55:26.940Z,81984
2017-03-04T12:56:40.747Z,71392
2017-03-04T12:57:54.474Z,66656
2017-03-04T12:59:08.237Z,76192
2017-03-04T13:00:21.995Z,50592
2017-03-04T13:01:35.756Z,43264
2017-03-04T13:02:48.855Z,34400
2017-03-04T13:04:02.607Z,29120
2017-03-04T13:05:16.371Z,34848
2017-03-04T13:06:30.108Z,36672
2017-03-04T13:07:43.259Z,30080
2017-03-04T13:08:56.996Z,38016
2017-03-04T13:10:10.750Z,51328
2017-03-04T13:11:24.474Z,44672
2017-03-04T13:12:38.256Z,33312
2017-03-04T13:13:52.018Z,52480
2017-03-04T13:15:06.446Z,48992
2017-03-04T13:16:20.885Z,53408
2017-03-04T13:17:35.287Z,45440
2017-03-04T13:18:49.707Z,43136
2017-03-04T13:20:04.095Z,57728
2017-03-04T13:21:18.000Z,46656
2017-03-04T13:22:31.725Z,56064
2017-03-04T13:23:45.468Z,61152
2017-03-04T13:24:59.199Z,104096
2017-03-04T13:26:11.741Z,148096
2017-03-04T13:27:25.522Z,47840
2017-03-04T13:28:39.314Z,147520
2017-03-04T13:29:53.035Z,53568
2017-03-04T13:31:06.753Z,48032
2017-03-04T13:32:20.471Z,47808
2017-03-04T13:33:34.204Z,45472
2017-03-04T13:34:47.949Z,54848
2017-03-04T13:36:01.709Z,38752
2017-03-04T13:37:15.431Z,27232
2017-03-04T13:38:29.149Z,30752
2017-03-04T13:39:42.865Z,28704
2017-03-04T13:40:56.568Z,24256
2017-03-04T13:42:10.287Z,25952
2017-03-04T13:43:23.436Z,52960
2017-03-04T13:44:37.218Z,142880
2017-03-04T13:45:50.923Z,64672
2017-03-04T13:47:04.665Z,54560
2017-03-04T13:48:18.456Z,88096
2017-03-04T13:49:32.156Z,139968
2017-03-04T13:50:45.290Z,95840
2017-03-04T13:51:59.037Z,139968
2017-03-04T13:53:12.758Z,128864
2017-03-04T13:54:26.529Z,124128
2017-03-04T13:55:40.299Z,128192
2017-03-04T13:56:54.052Z,125504
2017-03-04T13:58:07.800Z,74848
2017-03-04T13:59:21.543Z,139232
2017-03-04T14:00:35.268Z,51392
2017-03-04T14:34:06.563Z,71584
2017-03-04T14:35:20.285Z,57184
2017-03-04T14:36:33.429Z,43808
2017-03-04T14:37:46.606Z,45568
2017-03-04T14:39:00.362Z,59488
2017-03-04T14:40:14.082Z,45600
2017-03-04T14:41:27.819Z,51424
2017-03-04T14:42:41.590Z,87296
2017-03-04T14:43:54.697Z,86432
2017-03-04T14:45:08.420Z,91360
2017-03-04T14:46:22.116Z,45152
2017-03-04T14:47:35.246Z,82208
2017-03-04T14:48:48.979Z,126528
2017-03-04T14:50:02.723Z,74080
2017-03-04T14:51:16.461Z,148576
2017-03-04T14:52:30.163Z,163968
2017-03-04T14:53:43.871Z,61824
2017-03-04T14:54:57.627Z,127584
2017-03-04T14:56:11.373Z,101952
2017-03-04T14:57:25.149Z,71136
2017-03-04T14:58:38.941Z,60928
2017-03-04T14:59:52.722Z,51872
2017-03-04T15:01:06.423Z,48352
2017-03-04T15:02:18.983Z,127904
2017-03-04T15:03:32.130Z,54272
2017-03-04T15:04:45.853Z,57344
2017-03-04T15:05:59.608Z,58560
2017-03-04T15:07:13.345Z,54944
2017-03-04T15:08:26.470Z,50560
2017-03-04T15:09:40.225Z,56768
2017-03-04T15:10:53.410Z,169600
2017-03-04T15:12:06.573Z,152480
2017-03-04T15:13:20.299Z,37632
2017-03-04T15:14:34.039Z,33632
2017-03-04T15:15:47.226Z,30848
2017-03-04T15:17:00.943Z,26976
2017-03-04T15:18:14.709Z,27456
2017-03-04T15:19:28.443Z,28640
2017-03-04T15:20:42.189Z,24704
2017-03-04T15:21:55.298Z,22304
2017-03-04T15:23:09.032Z,20768
2017-03-04T15:24:22.795Z,27008
2017-03-04T15:25:36.535Z,102240
2017-03-04T15:26:50.498Z,47424
2017-03-04T15:28:04.276Z,43040
2017-03-04T15:29:18.016Z,43392
2017-03-04T15:30:31.138Z,157792
2017-03-04T15:31:44.258Z,152256
2017-03-04T15:32:57.977Z,42784
2017-03-04T15:34:11.792Z,46272
2017-03-04T15:35:25.543Z,48928
2017-03-04T15:36:39.236Z,45376
2017-03-04T15:37:53.007Z,43360
2017-03-04T15:39:06.760Z,38144
2017-03-04T15:40:20.508Z,35488
2017-03-04T15:41:33.662Z,34272
2017-03-04T15:42:47.467Z,39392
2017-03-04T15:44:01.250Z,159424
2017-03-04T15:45:14.974Z,150112
2017-03-04T15:46:28.706Z,148256
2017-03-04T15:47:42.474Z,145472
2017-03-04T15:48:56.236Z,140192
2017-03-04T15:50:09.986Z,130880
2017-03-04T15:51:23.756Z,132224
2017-03-04T15:52:37.534Z,134176
2017-03-04T15:53:51.274Z,138848
2017-03-04T15:55:04.993Z,103008
2017-03-04T15:56:18.691Z,147168
2017-03-04T15:57:31.824Z,150976
2017-03-04T15:58:45.547Z,142912
2017-03-04T15:59:59.250Z,136576
2017-03-04T16:01:12.986Z,134016
2017-03-04T16:02:27.594Z,42112
2017-03-04T16:03:40.738Z,144064
2017-03-04T16:04:53.848Z,143040
2017-03-04T16:06:07.580Z,64352
2017-03-04T16:07:21.311Z,35040
2017-03-04T16:08:33.864Z,146624
2017-03-04T16:09:47.618Z,39136
2017-03-04T16:11:01.310Z,47072
2017-03-04T16:12:15.046Z,32192
2017-03-04T16:13:28.829Z,31296
2017-03-04T16:14:41.328Z,34016
2017-03-04T16:15:55.088Z,133056
2017-03-04T16:17:08.810Z,143840
2017-03-04T16:18:22.563Z,136096
2017-03-04T16:19:36.315Z,133408
2017-03-04T16:20:50.050Z,50464
2017-03-04T16:22:03.820Z,36672
2017-03-04T16:23:17.562Z,38944
2017-03-04T16:24:30.704Z,34848
2017-03-04T16:25:44.447Z,39488
2017-03-04T16:26:57.590Z,139168
2017-03-04T16:28:11.350Z,135232
2017-03-04T16:29:25.197Z,149568
2017-03-04T16:30:38.934Z,144832
2017-03-04T16:31:52.076Z,35328
2017-03-04T16:33:05.820Z,71040
2017-03-04T16:34:19.624Z,43424
2017-03-04T16:35:33.350Z,136736
2017-03-04T16:36:47.099Z,135808
2017-03-04T16:38:00.246Z,142816
2017-03-04T16:39:13.979Z,144480
2017-03-04T16:40:27.720Z,134912
2017-03-04T16:41:40.884Z,133632
2017-03-04T16:42:54.631Z,133856
2017-03-04T16:44:08.385Z,126560
2017-03-04T16:45:21.537Z,125472
2017-03-04T16:46:35.273Z,129376
2017-03-04T16:47:48.981Z,122016
2017-03-04T16:49:02.166Z,118368
2017-03-04T16:50:15.878Z,125952
2017-03-04T16:51:29.624Z,129024
2017-03-04T16:52:43.372Z,126592
2017-03-04T16:53:57.099Z,128320
2017-03-04T16:55:10.816Z,29536
2017-03-04T16:56:23.345Z,29792
2017-03-04T16:57:37.094Z,34496
2017-03-04T16:58:50.852Z,44448
2017-03-04T17:00:03.999Z,55072
2017-03-04T17:01:17.132Z,40736
2017-03-04T17:02:30.867Z,35936
2017-03-04T17:03:44.636Z,34240
2017-03-04T17:04:58.403Z,32416
2017-03-04T17:06:12.137Z,33312
2017-03-04T17:07:25.247Z,33952
2017-03-04T17:08:38.959Z,34176
2017-03-04T17:09:52.715Z,39008
2017-03-04T17:11:05.857Z,45312
2017-03-04T17:12:19.598Z,74176
2017-03-04T17:13:33.324Z,50208
2017-03-04T17:14:46.454Z,94784
2017-03-04T17:16:00.162Z,63168
2017-03-04T17:17:13.909Z,63872
2017-03-04T17:18:26.436Z,43040
2017-03-04T17:19:40.146Z,41152
2017-03-04T17:20:53.890Z,67392
2017-03-04T17:22:07.646Z,45280
2017-03-04T17:23:21.409Z,42208
2017-03-04T17:24:35.162Z,44416
2017-03-04T17:25:48.930Z,66176
2017-03-04T17:27:02.611Z,126304
2017-03-04T17:28:16.391Z,41696
2017-03-04T17:29:30.126Z,39904
2017-03-04T17:30:43.873Z,49824
2017-03-04T17:31:57.584Z,71392
2017-03-04T17:33:11.349Z,123168
2017-03-04T17:34:24.485Z,51104
2017-03-04T17:35:37.630Z,45632
2017-03-04T17:36:51.366Z,38368
2017-03-04T17:38:05.094Z,33408